Time;durP1;ratioP1;P1;durP2;ratioP2;P2;SDS_P1;SDS_P2;PMS_P1;PMS_P2;Temp;Humidity;BMP_temperature;BMP_pressure;BME280_temperature;BME280_humidity;BME280_pressure;Samples;Min_cycle;Max_cycle;Signal;HPM_P1;HPM_P2
2023/03/13 00:02:12;;;;;;;25.20;5.05;;;8.50;99.90;;;;;;5094408;28;20039;-56
2023/03/13 00:04:38;;;;;;;27.30;6.88;;;8.60;99.90;;;;;;5094485;28;20042;-58
2023/03/13 00:07:04;;;;;;;20.73;5.55;;;7.70;99.90;;;;;;5094228;28;20105;-56
2023/03/13 00:09:30;;;;;;;22.55;6.25;;;7.70;99.90;;;;;;5094307;28;20093;-56
2023/03/13 00:11:55;;;;;;;28.77;5.43;;;8.90;99.90;;;;;;5094231;28;20054;-57
2023/03/13 00:14:21;;;;;;;31.38;6.57;;;8.70;99.90;;;;;;5094133;28;20397;-56
2023/03/13 00:16:47;;;;;;;32.58;6.22;;;7.60;99.90;;;;;;5093863;28;20093;-56
2023/03/13 00:19:14;;;;;;;31.77;5.97;;;8.30;99.90;;;;;;5093835;28;20044;-58
2023/03/13 00:21:42;;;;;;;26.42;6.10;;;8.70;99.90;;;;;;5094095;28;20032;-56
2023/03/13 00:24:10;;;;;;;30.38;6.32;;;8.60;99.90;;;;;;5093916;28;20318;-57
2023/03/13 00:26:35;;;;;;;27.52;6.40;;;7.60;99.90;;;;;;5092759;28;20490;-56
2023/03/13 00:29:01;;;;;;;29.92;7.28;;;8.30;99.90;;;;;;5093742;28;20078;-56
2023/03/13 00:31:29;;;;;;;30.00;6.18;;;7.50;99.90;;;;;;5094274;28;20384;-56
2023/03/13 00:33:59;;;;;;;37.03;7.45;;;8.60;99.90;;;;;;5093492;28;20047;-56
2023/03/13 00:36:30;;;;;;;34.85;8.25;;;8.20;99.90;;;;;;5093637;28;20036;-57
2023/03/13 00:38:57;;;;;;;27.35;6.85;;;8.30;99.90;;;;;;5093618;28;20492;-57
2023/03/13 00:41:28;;;;;;;39.97;7.63;;;8.90;99.90;;;;;;5093359;28;20040;-56
2023/03/13 00:43:54;;;;;;;29.90;8.93;;;7.50;99.90;;;;;;5094116;28;20043;-56
2023/03/13 00:46:22;;;;;;;30.90;6.63;;;7.60;99.90;;;;;;5093263;28;20267;-56
2023/03/13 00:48:48;;;;;;;33.22;6.72;;;8.80;99.90;;;;;;5093732;28;20055;-56
2023/03/13 00:51:16;;;;;;;36.13;7.05;;;8.70;99.90;;;;;;5093269;28;20131;-55
2023/03/13 00:53:43;;;;;;;32.60;6.50;;;8.10;99.90;;;;;;5093525;28;20395;-56
2023/03/13 00:56:11;;;;;;;33.30;6.80;;;7.40;99.90;;;;;;5093148;28;20048;-57
2023/03/13 00:58:38;;;;;;;35.08;7.35;;;8.80;99.90;;;;;;5075088;28;20052;-57
2023/03/13 01:01:23;;;;;;;27.50;7.30;;;8.90;99.90;;;;;;5093115;28;20032;-57
2023/03/13 01:03:52;;;;;;;35.70;7.65;;;7.70;99.90;;;;;;5093078;28;20036;-56
2023/03/13 01:06:20;;;;;;;36.33;8.32;;;7.40;99.90;;;;;;5092933;28;20083;-56
2023/03/13 01:08:46;;;;;;;37.65;7.75;;;7.60;99.90;;;;;;5092977;28;20043;-57
2023/03/13 01:11:15;;;;;;;33.42;7.75;;;7.40;99.90;;;;;;5092959;28;20139;-56
2023/03/13 01:13:42;;;;;;;35.63;8.05;;;8.00;99.90;;;;;;5093134;28;20127;-57
2023/03/13 01:16:10;;;;;;;37.60;7.80;;;8.40;99.90;;;;;;5092783;28;20035;-57
2023/03/13 01:18:38;;;;;;;36.15;7.95;;;7.40;99.90;;;;;;5092784;28;20097;-56
2023/03/13 01:21:04;;;;;;;31.65;7.07;;;7.50;99.90;;;;;;5091295;28;20045;-56
2023/03/13 01:23:30;;;;;;;31.95;7.97;;;8.40;99.90;;;;;;5092722;28;20040;-56
2023/03/13 01:25:56;;;;;;;38.97;8.10;;;7.40;99.90;;;;;;5092865;28;20089;-56
2023/03/13 01:28:23;;;;;;;38.15;7.45;;;7.40;99.90;;;;;;5074866;28;20447;-56
2023/03/13 01:30:48;;;;;;;42.28;7.78;;;8.20;99.90;;;;;;5092688;28;20044;-57
2023/03/13 01:33:14;;;;;;;39.38;8.95;;;9.00;99.90;;;;;;5092672;28;20042;-56
2023/03/13 01:35:40;;;;;;;36.42;7.70;;;8.90;99.90;;;;;;5091191;28;20040;-56
2023/03/13 01:38:06;;;;;;;34.83;8.13;;;7.70;99.90;;;;;;5092471;28;20043;-57
2023/03/13 01:40:45;;;;;;;30.38;8.02;;;7.60;99.90;;;;;;5092580;28;20036;-57
2023/03/13 01:43:27;;;;;;;28.08;7.80;;;8.70;99.90;;;;;;5092324;28;20072;-56
2023/03/13 01:46:24;;;;;;;31.85;7.57;;;8.60;99.90;;;;;;5091752;28;20044;-57
2023/03/13 01:48:52;;;;;;;27.88;7.20;;;8.90;99.90;;;;;;5078986;28;20101;-57
2023/03/13 01:51:30;;;;;;;33.88;8.55;;;8.60;99.90;;;;;;5092420;28;20036;-56
2023/03/13 01:54:12;;;;;;;29.38;7.22;;;9.20;99.90;;;;;;5092307;28;20483;-57
2023/03/13 01:56:44;;;;;;;30.65;7.38;;;9.00;99.90;;;;;;5092096;28;20082;-56
2023/03/13 01:59:14;;;;;;;37.22;8.15;;;9.30;99.90;;;;;;5092062;28;20093;-57
2023/03/13 02:01:42;;;;;;;27.13;7.18;;;7.50;99.90;;;;;;5092157;28;20032;-56
2023/03/13 02:04:08;;;;;;;25.40;7.53;;;9.20;99.90;;;;;;5092396;28;20043;-56
2023/03/13 02:06:37;;;;;;;27.13;7.03;;;9.10;99.90;;;;;;5091978;28;20055;-57
2023/03/13 02:09:10;;;;;;;29.83;6.95;;;8.60;99.90;;;;;;5092316;28;20396;-56
2023/03/13 02:11:44;;;;;;;31.95;7.38;;;8.70;99.90;;;;;;5092206;28;20043;-57
2023/03/13 02:14:11;;;;;;;26.92;6.07;;;7.60;99.90;;;;;;5092280;28;20123;-57
2023/03/13 02:16:38;;;;;;;27.98;6.07;;;7.60;99.90;;;;;;5092056;28;20040;-56
2023/03/13 02:19:16;;;;;;;30.95;6.55;;;8.40;99.90;;;;;;5092000;28;20044;-56
2023/03/13 02:21:58;;;;;;;30.13;8.30;;;8.90;99.90;;;;;;5091844;28;20036;-57
2023/03/13 02:24:35;;;;;;;23.75;6.57;;;8.30;99.90;;;;;;5091967;28;20080;-57
2023/03/13 02:27:02;;;;;;;23.75;6.80;;;7.50;99.90;;;;;;5092096;28;20048;-58
2023/03/13 02:29:28;;;;;;;25.13;6.40;;;8.20;99.90;;;;;;5091889;28;20040;-58
2023/03/13 02:31:54;;;;;;;19.52;6.13;;;9.50;99.90;;;;;;5092001;28;20043;-58
2023/03/13 02:34:31;;;;;;;23.80;5.82;;;9.40;99.90;;;;;;5091899;28;20086;-58
2023/03/13 02:36:58;;;;;;;24.13;6.28;;;9.50;99.90;;;;;;5091929;28;20498;-58
2023/03/13 02:39:25;;;;;;;23.17;5.95;;;7.90;99.90;;;;;;5092096;28;20083;-58
2023/03/13 02:41:52;;;;;;;17.70;5.53;;;9.50;99.90;;;;;;5091807;28;20044;-58
2023/03/13 02:44:18;;;;;;;22.73;5.78;;;9.50;99.90;;;;;;5091971;28;20040;-57
2023/03/13 02:46:46;;;;;;;19.20;5.68;;;8.90;99.90;;;;;;5091899;28;20499;-58
2023/03/13 02:49:28;;;;;;;15.88;5.65;;;7.70;99.90;;;;;;5091907;28;20063;-58
2023/03/13 02:51:57;;;;;;;;;;;9.20;99.90;;;;;;5092229;28;20035;-58
2023/03/13 02:54:33;;;;;;;16.65;5.72;;;7.90;99.90;;;;;;5091744;28;20291;-58
2023/03/13 02:57:02;;;;;;;19.02;6.50;;;8.30;99.90;;;;;;5093116;28;20032;-58
2023/03/13 02:59:28;;;;;;;14.80;5.20;;;9.80;99.90;;;;;;5095630;28;20047;-58
2023/03/13 03:01:54;;;;;;;16.92;4.75;;;9.50;99.90;;;;;;5095651;28;20032;-57
2023/03/13 03:04:22;;;;;;;20.05;6.13;;;9.90;99.90;;;;;;5095811;28;20032;-57
2023/03/13 03:06:48;;;;;;;16.52;5.30;;;7.90;99.90;;;;;;5095766;28;20063;-57
2023/03/13 03:09:14;;;;;;;15.38;4.47;;;7.60;99.90;;;;;;5095498;28;20040;-57
2023/03/13 03:11:40;;;;;;;12.68;4.55;;;9.40;99.90;;;;;;5095778;28;20047;-59
2023/03/13 03:14:07;;;;;;;12.45;4.43;;;10.10;99.90;;;;;;5095753;28;20036;-58
2023/03/13 03:16:32;;;;;;;11.73;4.80;;;10.00;99.90;;;;;;5095329;28;20071;-57
2023/03/13 03:18:58;;;;;;;13.68;4.43;;;10.00;99.90;;;;;;5095360;28;20075;-57
2023/03/13 03:21:24;;;;;;;12.55;4.47;;;9.00;99.90;;;;;;5095386;28;20048;-57
2023/03/13 03:23:50;;;;;;;15.25;5.28;;;9.80;99.90;;;;;;5095059;28;20042;-57
2023/03/13 03:26:16;;;;;;;16.25;5.60;;;10.00;99.90;;;;;;5095187;28;20040;-57
2023/03/13 03:28:42;;;;;;;14.38;4.80;;;9.80;99.90;;;;;;5095256;28;20077;-57
2023/03/13 03:31:10;;;;;;;13.50;4.90;;;8.00;99.90;;;;;;5095124;28;20121;-58
2023/03/13 03:33:36;;;;;;;13.15;4.13;;;10.00;99.90;;;;;;5095034;28;20110;-58
2023/03/13 03:36:06;;;;;;;13.55;5.25;;;10.20;99.90;;;;;;5095022;28;20127;-57
2023/03/13 03:38:32;;;;;;;10.40;4.53;;;10.30;99.90;;;;;;5094889;28;20047;-56
2023/03/13 03:40:58;;;;;;;11.82;3.92;;;10.00;99.90;;;;;;5094521;28;20079;-56
2023/03/13 03:43:23;;;;;;;13.32;5.55;;;7.90;99.90;;;;;;5094902;28;20075;-57
2023/03/13 03:45:49;;;;;;;11.02;4.85;;;10.10;99.90;;;;;;5094650;28;20396;-56
2023/03/13 03:48:15;;;;;;;12.18;5.13;;;8.90;99.90;;;;;;5094626;28;20062;-56
2023/03/13 03:50:40;;;;;;;15.10;5.00;;;8.60;99.90;;;;;;5094259;28;20127;-56
2023/03/13 03:53:06;;;;;;;10.88;4.57;;;10.10;99.90;;;;;;5094755;28;20044;-56
2023/03/13 03:55:32;;;;;;;12.23;4.65;;;8.10;99.90;;;;;;5094354;28;20067;-56
2023/03/13 03:57:58;;;;;;;12.70;5.53;;;8.40;99.90;;;;;;5093156;28;20044;-56
2023/03/13 04:00:24;;;;;;;14.52;4.32;;;8.20;99.90;;;;;;5094387;28;20047;-56
2023/03/13 04:02:50;;;;;;;9.60;4.63;;;10.50;99.90;;;;;;5094489;28;20040;-56
2023/03/13 04:05:15;;;;;;;9.50;4.05;;;10.00;99.90;;;;;;5094433;28;20365;-57
2023/03/13 04:07:41;;;;;;;7.93;4.38;;;8.80;99.90;;;;;;5094005;28;20060;-56
2023/03/13 04:10:08;;;;;;;11.55;4.18;;;9.00;99.90;;;;;;5093931;28;20055;-56
2023/03/13 04:12:33;;;;;;;8.95;3.63;;;9.00;99.90;;;;;;5094498;28;20044;-56
2023/03/13 04:14:59;;;;;;;11.05;3.75;;;8.30;99.90;;;;;;5093004;28;20039;-56
2023/03/13 04:17:25;;;;;;;10.50;3.75;;;10.50;99.90;;;;;;5092918;28;20079;-56
2023/03/13 04:19:51;;;;;;;9.27;3.72;;;9.60;99.90;;;;;;5094043;28;20098;-57
2023/03/13 04:22:17;;;;;;;9.38;3.88;;;8.40;99.90;;;;;;5094010;28;20511;-56
2023/03/13 04:24:42;;;;;;;9.85;3.63;;;8.50;99.90;;;;;;5093591;28;20427;-56
2023/03/13 04:27:08;;;;;;;11.93;4.95;;;8.40;99.90;;;;;;5092790;28;20046;-56
2023/03/13 04:29:34;;;;;;;13.50;6.75;;;8.50;99.90;;;;;;5093911;28;20077;-56
2023/03/13 04:32:00;;;;;;;16.10;7.15;;;8.90;99.90;;;;;;5093815;28;20051;-55
2023/03/13 04:34:26;;;;;;;17.33;7.80;;;11.30;99.90;;;;;;5092743;28;20072;-56
2023/03/13 04:36:52;;;;;;;18.02;9.27;;;9.20;99.90;;;;;;5093723;28;20070;-55
2023/03/13 04:39:18;;;;;;;17.33;8.02;;;9.00;99.90;;;;;;5093568;28;20032;-56
2023/03/13 04:41:43;;;;;;;19.27;9.57;;;11.40;99.90;;;;;;5093611;28;20040;-56
2023/03/13 04:44:09;;;;;;;28.25;10.23;;;11.20;99.90;;;;;;5093670;28;20055;-55
2023/03/13 04:46:35;;;;;;;19.13;10.02;;;9.20;99.90;;;;;;5093564;28;20401;-56
2023/03/13 04:49:00;;;;;;;20.38;10.57;;;9.30;99.90;;;;;;5092140;28;20047;-56
2023/03/13 04:51:26;;;;;;;25.98;10.82;;;10.30;99.90;;;;;;5080198;28;20039;-55
2023/03/13 04:53:52;;;;;;;28.23;12.30;;;9.40;99.90;;;;;;5093081;28;20492;-56
2023/03/13 04:56:26;;;;;;;23.35;11.05;;;11.40;99.90;;;;;;5093336;28;20036;-56
2023/03/13 04:58:52;;;;;;;22.52;11.23;;;9.50;99.90;;;;;;5093145;28;20051;-55
2023/03/13 05:01:18;;;;;;;23.17;10.45;;;11.10;99.90;;;;;;5093289;28;20036;-55
2023/03/13 05:03:43;;;;;;;22.35;9.98;;;9.70;99.90;;;;;;5093262;28;20028;-55
2023/03/13 05:06:10;;;;;;;22.55;11.75;;;11.70;99.90;;;;;;5093079;28;20496;-55
2023/03/13 05:08:35;;;;;;;22.73;11.75;;;11.80;99.90;;;;;;5092970;28;20055;-55
2023/03/13 05:11:02;;;;;;;20.63;11.05;;;10.60;99.90;;;;;;5093249;28;20040;-56
2023/03/13 05:13:28;;;;;;;21.25;11.05;;;9.80;99.90;;;;;;5092897;28;20492;-56
2023/03/13 05:15:53;;;;;;;23.45;10.95;;;9.90;99.90;;;;;;5093164;28;20062;-55
2023/03/13 05:18:19;;;;;;;22.10;10.45;;;10.00;99.90;;;;;;5093058;28;20145;-55
2023/03/13 05:20:45;;;;;;;21.23;10.68;;;10.80;99.90;;;;;;5091819;28;20588;-55
2023/03/13 05:23:10;;;;;;;21.95;9.82;;;11.90;99.90;;;;;;5092731;28;20039;-54
2023/03/13 05:25:36;;;;;;;21.23;8.73;;;11.10;99.90;;;;;;5092730;28;20373;-53
2023/03/13 05:28:02;;;;;;;19.65;8.88;;;11.90;99.90;;;;;;5092793;28;20124;-55
2023/03/13 05:30:28;;;;;;;16.23;7.95;;;11.70;99.90;;;;;;5093027;28;20036;-55
2023/03/13 05:32:53;;;;;;;19.02;9.18;;;10.40;99.90;;;;;;5092803;28;20052;-53
2023/03/13 05:35:19;;;;;;;15.45;6.85;;;11.00;99.90;;;;;;5092588;28;20446;-55
2023/03/13 05:37:45;;;;;;;14.95;6.10;;;12.00;99.90;;;;;;5092403;28;20040;-54
2023/03/13 05:40:12;;;;;;;15.00;7.57;;;11.80;99.90;;;;;;5092510;28;20082;-54
2023/03/13 05:42:38;;;;;;;15.57;6.93;;;10.30;99.90;;;;;;5092740;28;20143;-55
2023/03/13 05:45:04;;;;;;;16.67;6.80;;;10.20;99.90;;;;;;5092572;28;20032;-55
2023/03/13 05:47:30;;;;;;;14.50;6.97;;;12.00;99.90;;;;;;5091651;28;20043;-55
2023/03/13 05:49:56;;;;;;;14.90;7.45;;;12.20;99.90;;;;;;5092244;28;20050;-53
2023/03/13 05:52:22;;;;;;;15.30;7.40;;;10.50;99.90;;;;;;5091197;28;20387;-55
2023/03/13 05:54:47;;;;;;;14.82;6.45;;;11.90;99.90;;;;;;5092622;28;20441;-55
2023/03/13 05:57:13;;;;;;;19.17;6.53;;;10.60;99.90;;;;;;5092676;28;20055;-55
2023/03/13 05:59:39;;;;;;;16.38;6.43;;;11.00;99.90;;;;;;5092252;28;20032;-55
2023/03/13 06:02:04;;;;;;;19.63;7.97;;;10.60;99.90;;;;;;5092385;28;20092;-54
2023/03/13 06:04:30;;;;;;;20.83;9.25;;;10.70;99.90;;;;;;5092327;28;20052;-54
2023/03/13 06:06:56;;;;;;;18.75;7.93;;;10.50;99.90;;;;;;5092306;28;20131;-51
2023/03/13 06:09:21;;;;;;;20.77;7.43;;;10.40;99.90;;;;;;5090885;28;20036;-55
2023/03/13 06:11:48;;;;;;;18.40;6.72;;;12.30;99.90;;;;;;5091234;28;20085;-55
2023/03/13 06:14:13;;;;;;;19.05;7.00;;;10.70;99.90;;;;;;5091893;28;20044;-52
2023/03/13 06:16:39;;;;;;;18.45;6.72;;;10.50;99.90;;;;;;5091966;28;20036;-54
2023/03/13 06:19:05;;;;;;;18.88;6.90;;;12.00;99.90;;;;;;5091923;28;20131;-55
2023/03/13 06:21:30;;;;;;;17.38;6.18;;;10.90;99.90;;;;;;5092354;28;20388;-52
2023/03/13 06:23:56;;;;;;;19.20;6.28;;;12.10;99.90;;;;;;5092314;28;20388;-55
2023/03/13 06:26:23;;;;;;;21.35;6.10;;;10.20;99.90;;;;;;5090959;28;20036;-55
2023/03/13 06:28:49;;;;;;;20.25;6.82;;;11.80;99.90;;;;;;5092212;28;20040;-54
2023/03/13 06:31:15;;;;;;;19.67;6.90;;;12.30;99.90;;;;;;5092355;28;20660;-55
2023/03/13 06:33:40;;;;;;;22.98;6.75;;;12.30;99.90;;;;;;5096028;28;20039;-54
2023/03/13 06:36:07;;;;;;;22.13;6.40;;;12.10;99.90;;;;;;5094811;28;20050;-55
2023/03/13 06:38:33;;;;;;;16.48;6.20;;;10.30;99.90;;;;;;5085524;28;20402;-55
2023/03/13 06:40:59;;;;;;;16.75;5.43;;;11.10;99.90;;;;;;5085713;28;20024;-55
2023/03/13 06:43:24;;;;;;;15.90;6.03;;;10.30;99.90;;;;;;5085992;28;20647;-55
2023/03/13 06:45:50;;;;;;;18.85;6.45;;;11.60;99.90;;;;;;5091637;28;20040;-55
2023/03/13 06:48:17;;;;;;;17.67;5.20;;;11.30;99.90;;;;;;5092071;28;20040;-55
2023/03/13 06:50:42;;;;;;;19.38;5.95;;;10.10;99.90;;;;;;5087357;28;20048;-54
2023/03/13 06:53:15;;;;;;;16.58;5.13;;;11.80;99.90;;;;;;5083694;28;20387;-55
2023/03/13 06:55:41;;;;;;;17.35;6.30;;;10.90;99.90;;;;;;5081184;28;20687;-54
2023/03/13 06:58:07;;;;;;;19.00;5.30;;;11.60;99.90;;;;;;5084573;28;20118;-54
2023/03/13 07:00:33;;;;;;;17.52;5.50;;;11.70;99.90;;;;;;5076652;28;20120;-54
2023/03/13 07:02:59;;;;;;;21.95;5.50;;;11.60;99.90;;;;;;5073966;28;20036;-55
2023/03/13 07:05:24;;;;;;;16.05;5.43;;;10.50;99.90;;;;;;5073809;28;20553;-55
2023/03/13 07:07:50;;;;;;;16.98;5.63;;;10.90;99.90;;;;;;5073684;28;20139;-55
2023/03/13 07:10:16;;;;;;;16.75;5.70;;;10.70;99.90;;;;;;5074040;28;20500;-55
2023/03/13 07:12:43;;;;;;;15.38;5.32;;;11.70;99.90;;;;;;5073585;28;20078;-52
2023/03/13 07:15:09;;;;;;;16.25;4.75;;;10.50;99.90;;;;;;5073695;28;20044;-55
2023/03/13 07:17:35;;;;;;;14.23;5.50;;;10.60;99.90;;;;;;5073382;28;20063;-55
2023/03/13 07:20:09;;;;;;;19.58;4.93;;;10.80;99.90;;;;;;5073642;28;20043;-55
2023/03/13 07:22:36;;;;;;;14.85;5.03;;;11.50;99.90;;;;;;5073578;28;20142;-55
2023/03/13 07:25:03;;;;;;;15.20;5.03;;;11.30;99.90;;;;;;5073548;28;20040;-56
2023/03/13 07:27:29;;;;;;;14.18;4.75;;;10.90;99.90;;;;;;5073425;28;20044;-54
2023/03/13 07:29:55;;;;;;;14.52;4.53;;;10.50;99.90;;;;;;5055666;28;20048;-55
2023/03/13 07:32:21;;;;;;;18.50;6.07;;;10.50;99.90;;;;;;5073860;28;20078;-56
2023/03/13 07:34:47;;;;;;;13.82;4.93;;;11.50;99.90;;;;;;5073238;28;20048;-55
2023/03/13 07:37:14;;;;;;;13.38;4.72;;;11.90;99.90;;;;;;5073191;28;20041;-56
2023/03/13 07:39:41;;;;;;;13.68;3.97;;;11.80;99.90;;;;;;5073750;28;20036;-56
2023/03/13 07:42:11;;;;;;;14.57;5.43;;;11.00;99.90;;;;;;5073096;28;20119;-56
2023/03/13 07:44:37;;;;;;;11.55;4.80;;;11.80;99.90;;;;;;5072108;28;20075;-56
2023/03/13 07:47:03;;;;;;;15.98;4.55;;;10.50;99.90;;;;;;5073133;28;20055;-54
2023/03/13 07:49:28;;;;;;;17.60;4.30;;;11.70;99.90;;;;;;5073373;28;20289;-52
2023/03/13 07:51:54;;;;;;;16.25;4.75;;;11.80;99.90;;;;;;5083944;28;20085;-55
2023/03/13 07:54:20;;;;;;;12.85;3.78;;;10.60;99.90;;;;;;5093163;28;20546;-54
2023/03/13 07:56:46;;;;;;;18.58;5.07;;;10.50;99.90;;;;;;5093279;28;20040;-54
2023/03/13 07:59:11;;;;;;;14.80;5.18;;;11.50;99.90;;;;;;5093250;28;20070;-56
2023/03/13 08:01:37;;;;;;;17.10;3.97;;;10.40;99.90;;;;;;5092101;28;20063;-56
2023/03/13 08:04:04;;;;;;;10.55;3.83;;;10.50;99.90;;;;;;5086189;28;20514;-55
2023/03/13 08:06:31;;;;;;;14.57;4.50;;;11.90;99.90;;;;;;5079829;28;20401;-55
2023/03/13 08:08:58;;;;;;;12.00;4.43;;;10.60;99.90;;;;;;5092797;28;20052;-56
2023/03/13 08:11:25;;;;;;;13.45;4.55;;;11.40;99.90;;;;;;5092569;28;20048;-56
2023/03/13 08:13:52;;;;;;;13.48;3.90;;;11.80;99.90;;;;;;5092303;28;20547;-55
2023/03/13 08:16:20;;;;;;;11.07;3.45;;;10.70;99.90;;;;;;5074055;28;20071;-57
2023/03/13 08:18:48;;;;;;;17.30;4.47;;;10.70;99.90;;;;;;5074465;28;20048;-56
2023/03/13 08:21:16;;;;;;;14.57;3.50;;;11.10;99.90;;;;;;5092417;28;20032;-56
2023/03/13 08:23:42;;;;;;;10.60;3.35;;;10.90;99.90;;;;;;5091243;28;20074;-57
2023/03/13 08:26:14;;;;;;;10.73;3.30;;;11.00;99.90;;;;;;5092417;28;20043;-56
2023/03/13 08:28:40;;;;;;;8.98;3.20;;;11.10;99.90;;;;;;5091696;28;20044;-57
2023/03/13 08:31:12;;;;;;;13.90;3.55;;;12.10;99.90;;;;;;5082568;28;20508;-56
2023/03/13 08:33:39;;;;;;;9.98;2.70;;;11.20;99.90;;;;;;5083371;28;20111;-56
2023/03/13 08:36:13;;;;;;;9.95;3.15;;;11.40;99.90;;;;;;5081211;28;20445;-55
2023/03/13 08:38:43;;;;;;;11.07;3.38;;;12.30;99.90;;;;;;5081685;28;20158;-56
2023/03/13 08:41:10;;;;;;;11.77;2.88;;;12.40;99.90;;;;;;5080787;28;20046;-56
2023/03/13 08:43:36;;;;;;;7.43;2.67;;;11.50;99.90;;;;;;5086313;28;20342;-55
2023/03/13 08:46:02;;;;;;;8.68;3.03;;;11.80;99.90;;;;;;5083581;28;20082;-56
2023/03/13 08:48:27;;;;;;;8.77;3.60;;;12.50;99.90;;;;;;5080032;28;20036;-56
2023/03/13 08:51:21;;;;;;;12.70;2.53;;;11.70;99.90;;;;;;5083090;28;20036;-56
2023/03/13 08:53:47;;;;;;;8.88;2.42;;;12.50;99.90;;;;;;5078876;28;20048;-56
2023/03/13 08:56:15;;;;;;;9.57;3.03;;;12.00;99.90;;;;;;5079103;28;20075;-56
2023/03/13 08:58:42;;;;;;;10.65;2.47;;;11.90;99.90;;;;;;5082978;28;20046;-56
2023/03/13 09:01:13;;;;;;;9.05;2.30;;;12.50;99.90;;;;;;5080649;28;20507;-56
2023/03/13 09:03:40;;;;;;;11.32;2.83;;;12.00;99.90;;;;;;5079722;28;20036;-56
2023/03/13 09:06:07;;;;;;;10.48;3.67;;;12.00;99.90;;;;;;5073755;28;20048;-56
2023/03/13 09:08:33;;;;;;;11.75;2.60;;;12.60;99.90;;;;;;5071381;28;20048;-57
2023/03/13 09:11:05;;;;;;;11.25;2.42;;;12.20;99.90;;;;;;5070194;28;20056;-56
2023/03/13 09:13:32;;;;;;;7.30;2.17;;;12.30;99.90;;;;;;5071310;28;20101;-56
2023/03/13 09:16:00;;;;;;;7.25;2.03;;;12.60;99.90;;;;;;5071428;28;20044;-56
2023/03/13 09:18:26;;;;;;;8.55;1.92;;;12.50;99.90;;;;;;5069858;28;20044;-56
2023/03/13 09:20:52;;;;;;;8.45;2.65;;;12.50;99.90;;;;;;5071209;28;20147;-56
2023/03/13 09:23:19;;;;;;;11.65;2.63;;;12.40;99.90;;;;;;5070112;28;20036;-57
2023/03/13 09:25:45;;;;;;;9.38;2.15;;;12.40;99.90;;;;;;5076848;28;20048;-57
2023/03/13 09:28:10;;;;;;;8.95;2.28;;;12.60;99.90;;;;;;5079077;28;20062;-56
2023/03/13 09:30:36;;;;;;;12.07;2.53;;;12.60;99.90;;;;;;5082083;28;20093;-57
2023/03/13 09:33:02;;;;;;;9.98;2.50;;;12.10;99.90;;;;;;5079867;28;20032;-56
2023/03/13 09:35:27;;;;;;;13.60;2.85;;;12.10;99.90;;;;;;5076685;28;20560;-57
2023/03/13 09:37:53;;;;;;;13.25;2.70;;;12.50;99.90;;;;;;5069388;28;20044;-56
2023/03/13 09:40:21;;;;;;;11.13;2.35;;;12.00;99.90;;;;;;5071324;28;20087;-56
2023/03/13 09:42:47;;;;;;;12.48;2.80;;;11.90;99.90;;;;;;5070835;28;20065;-56
2023/03/13 09:45:34;;;;;;;15.65;2.67;;;12.20;99.90;;;;;;5070978;28;20040;-57
2023/03/13 09:48:04;;;;;;;14.63;2.90;;;11.90;99.90;;;;;;5069303;28;20127;-55
2023/03/13 09:50:36;;;;;;;13.50;2.50;;;11.50;99.90;;;;;;5086276;28;20066;-56
2023/03/13 09:53:12;;;;;;;;;;;12.10;99.90;;;;;;5070080;28;20040;-56
2023/03/13 09:55:40;;;;;;;12.65;2.85;;;11.60;99.90;;;;;;5070955;28;20382;-58
2023/03/13 09:58:25;;;;;;;13.73;2.92;;;12.20;99.90;;;;;;5070713;28;20075;-59
2023/03/13 10:00:59;;;;;;;14.27;2.83;;;11.80;99.90;;;;;;5071042;28;20477;-56
2023/03/13 10:03:33;;;;;;;16.13;3.60;;;12.20;99.90;;;;;;5070707;28;20579;-57
2023/03/13 10:06:03;;;;;;;14.98;3.17;;;12.30;99.90;;;;;;5070317;28;20093;-56
2023/03/13 10:08:33;;;;;;;15.30;3.15;;;12.90;99.90;;;;;;5070591;28;20064;-56
2023/03/13 10:11:11;;;;;;;14.05;3.25;;;12.70;99.90;;;;;;5070842;28;20462;-57
2023/03/13 10:13:59;;;;;;;13.77;2.60;;;13.10;99.90;;;;;;5070796;28;20132;-57
2023/03/13 10:16:47;;;;;;;14.23;2.90;;;13.10;99.90;;;;;;5069381;28;20075;-56
2023/03/13 10:19:18;;;;;;;11.80;2.55;;;13.00;99.90;;;;;;5070507;28;20051;-56
2023/03/13 10:21:51;;;;;;;12.30;3.13;;;13.10;99.90;;;;;;5070290;28;20097;-56
2023/03/13 10:24:29;;;;;;;17.70;3.50;;;13.20;99.90;;;;;;5071539;28;20048;-57
2023/03/13 10:26:56;;;;;;;17.00;3.60;;;13.20;99.90;;;;;;5070318;28;20048;-56
2023/03/13 10:29:25;;;;;;;16.70;3.67;;;13.10;99.90;;;;;;5071623;28;20037;-57
2023/03/13 10:32:02;;;;;;;13.73;3.00;;;13.20;99.90;;;;;;5070502;28;20039;-56
2023/03/13 10:34:51;;;;;;;17.20;2.97;;;13.10;99.90;;;;;;5071741;28;20036;-57
2023/03/13 10:37:38;;;;;;;16.30;3.80;;;13.10;99.90;;;;;;5071739;28;20106;-56
2023/03/13 10:40:19;;;;;;;17.25;3.13;;;13.30;99.90;;;;;;5071917;28;20052;-56
2023/03/13 10:42:45;;;;;;;16.63;3.28;;;13.10;99.90;;;;;;5071346;28;20047;-57
2023/03/13 10:45:16;;;;;;;18.85;3.03;;;13.10;99.90;;;;;;5078832;28;20023;-57
2023/03/13 10:47:42;;;;;;;14.60;3.63;;;13.10;99.90;;;;;;5081920;28;20086;-57
2023/03/13 10:50:18;;;;;;;23.75;3.53;;;13.20;99.90;;;;;;5083896;28;20494;-57
2023/03/13 10:52:46;;;;;;;15.65;3.42;;;13.30;99.90;;;;;;5082813;28;20118;-58
2023/03/13 10:55:21;;;;;;;16.25;3.30;;;13.20;99.90;;;;;;5077470;28;20645;-56
2023/03/13 10:58:03;;;;;;;18.08;3.72;;;13.20;99.90;;;;;;5080261;28;20484;-57
2023/03/13 11:00:39;;;;;;;12.50;3.17;;;13.20;99.90;;;;;;5081691;28;20037;-57
2023/03/13 11:03:22;;;;;;;16.10;3.45;;;13.20;99.90;;;;;;5081499;28;20098;-57
2023/03/13 11:06:00;;;;;;;14.43;3.35;;;13.20;99.90;;;;;;5079011;28;20103;-57
2023/03/13 11:08:34;;;;;;;13.05;2.88;;;13.10;99.90;;;;;;5081633;28;20109;-57
2023/03/13 11:11:14;;;;;;;15.43;3.42;;;13.20;99.90;;;;;;5081623;28;20113;-57
2023/03/13 11:13:41;;;;;;;14.23;3.88;;;13.30;99.90;;;;;;5078803;28;20047;-56
2023/03/13 11:16:15;;;;;;;15.30;3.00;;;13.30;99.90;;;;;;5078747;28;20068;-57
2023/03/13 11:19:14;;;;;;;14.00;2.92;;;13.40;99.90;;;;;;5083040;28;20033;-56
2023/03/13 11:21:58;;;;;;;12.70;3.13;;;13.50;99.90;;;;;;5082959;28;20094;-55
2023/03/13 11:24:43;;;;;;;13.98;3.65;;;13.50;99.90;;;;;;5082757;28;20083;-57
2023/03/13 11:27:15;;;;;;;13.38;3.20;;;13.60;99.90;;;;;;5073499;28;20064;-56
2023/03/13 11:30:06;;;;;;;11.60;2.72;;;13.80;99.90;;;;;;5074557;28;20392;-56
2023/03/13 11:32:48;;;;;;;14.07;3.35;;;13.80;99.90;;;;;;5074694;28;20366;-56
2023/03/13 11:35:20;;;;;;;16.58;3.08;;;13.90;99.90;;;;;;5074610;28;20067;-56
2023/03/13 11:37:47;;;;;;;11.90;2.70;;;14.10;99.90;;;;;;5074530;28;20052;-56
2023/03/13 11:40:21;;;;;;;11.15;2.67;;;14.20;99.90;;;;;;5074895;28;20040;-57
2023/03/13 11:43:08;;;;;;;10.85;2.78;;;14.10;99.90;;;;;;5073932;28;20039;-57
2023/03/13 11:45:57;;;;;;;16.85;3.05;;;14.10;99.90;;;;;;5073736;28;20045;-57
2023/03/13 11:48:52;;;;;;;12.52;2.78;;;14.10;99.90;;;;;;5073247;28;20052;-56
2023/03/13 11:51:48;;;;;;;13.38;3.10;;;14.20;99.90;;;;;;5064432;28;20123;-56
2023/03/13 11:54:22;;;;;;;15.10;3.05;;;14.30;99.90;;;;;;5081426;28;20503;-57
2023/03/13 11:56:58;;;;;;;15.27;3.42;;;14.20;99.90;;;;;;5082896;28;20071;-57
2023/03/13 11:59:36;;;;;;;11.98;2.70;;;14.10;99.90;;;;;;5084069;28;20055;-55
2023/03/13 12:02:16;;;;;;;15.05;3.03;;;14.00;99.90;;;;;;5078825;28;20059;-57
2023/03/13 12:04:44;;;;;;;19.02;3.33;;;13.90;99.90;;;;;;5081845;28;20373;-57
2023/03/13 12:08:02;;;;;;;14.73;3.28;;;13.80;99.90;;;;;;5083406;28;20049;-56
2023/03/13 12:10:55;;;;;;;14.65;3.85;;;13.70;99.90;;;;;;5066975;28;20040;-57
2023/03/13 12:13:32;;;;;;;19.55;3.90;;;13.60;99.90;;;;;;5073696;28;20116;-56
2023/03/13 12:16:05;;;;;;;19.15;3.95;;;13.60;99.90;;;;;;5074022;28;20115;-57
2023/03/13 12:18:37;;;;;;;16.52;3.63;;;13.50;99.90;;;;;;5073858;28;20107;-57
2023/03/13 12:21:06;;;;;;;20.45;4.32;;;13.50;99.90;;;;;;5074061;28;20037;-57
2023/03/13 12:24:03;;;;;;;16.40;4.07;;;13.50;99.90;;;;;;5093831;28;20048;-57
2023/03/13 12:26:46;;;;;;;19.00;3.47;;;13.60;99.90;;;;;;5094008;28;20040;-56
2023/03/13 12:29:30;;;;;;;14.55;3.13;;;13.70;99.90;;;;;;5093256;28;20043;-57
2023/03/13 12:32:23;;;;;;;18.35;3.75;;;13.70;99.90;;;;;;5093696;28;20040;-57
2023/03/13 12:35:15;;;;;;;17.88;4.15;;;13.70;99.90;;;;;;5089696;28;20214;-56
2023/03/13 12:37:44;;;;;;;13.88;3.25;;;13.80;99.90;;;;;;5093751;28;20123;-57
2023/03/13 12:40:36;;;;;;;13.25;2.63;;;13.70;99.90;;;;;;5084158;28;20046;-57
2023/03/13 12:43:30;;;;;;;13.80;3.22;;;13.70;99.90;;;;;;5060529;28;20491;-57
2023/03/13 12:45:55;;;;;;;20.30;4.25;;;13.80;99.90;;;;;;5084267;28;20058;-58
2023/03/13 12:48:46;;;;;;;18.23;3.78;;;13.80;99.90;;;;;;5080824;28;20033;-57
2023/03/13 12:51:22;;;;;;;15.43;3.22;;;13.80;99.90;;;;;;5081621;28;20500;-57
2023/03/13 12:53:48;;;;;;;17.05;3.20;;;13.80;99.90;;;;;;5081530;28;20044;-57
2023/03/13 12:56:29;;;;;;;16.00;3.38;;;13.70;99.90;;;;;;5083691;28;20119;-57